sensor_id;sensor_type;location;lat;lon;timestamp;P1;durP1;ratioP1;P2;durP2;ratioP2
31126;SDS011;17775;57.948;12.514;2023-10-19T00:00:41;0.50;;;0.40;;
31126;SDS011;17775;57.948;12.514;2023-10-19T00:03:11;0.40;;;0.40;;
31126;SDS011;17775;57.948;12.514;2023-10-19T00:05:38;0.88;;;0.52;;
31126;SDS011;17775;57.948;12.514;2023-10-19T00:08:06;1.42;;;0.82;;
31126;SDS011;17775;57.948;12.514;2023-10-19T00:10:46;1.17;;;0.80;;
31126;SDS011;17775;57.948;12.514;2023-10-19T00:13:14;0.98;;;0.80;;
31126;SDS011;17775;57.948;12.514;2023-10-19T00:15:41;1.35;;;0.82;;
31126;SDS011;17775;57.948;12.514;2023-10-19T00:18:18;0.70;;;0.50;;
31126;SDS011;17775;57.948;12.514;2023-10-19T00:20:48;0.98;;;0.75;;
31126;SDS011;17775;57.948;12.514;2023-10-19T00:23:22;1.13;;;0.73;;
31126;SDS011;17775;57.948;12.514;2023-10-19T00:25:59;1.30;;;0.85;;
31126;SDS011;17775;57.948;12.514;2023-10-19T00:28:26;1.17;;;0.77;;
31126;SDS011;17775;57.948;12.514;2023-10-19T00:30:53;0.80;;;0.70;;
31126;SDS011;17775;57.948;12.514;2023-10-19T00:33:25;1.00;;;0.60;;
31126;SDS011;17775;57.948;12.514;2023-10-19T00:35:54;1.85;;;0.80;;
31126;SDS011;17775;57.948;12.514;2023-10-19T00:38:39;1.30;;;0.80;;
31126;SDS011;17775;57.948;12.514;2023-10-19T00:41:13;1.63;;;0.90;;
31126;SDS011;17775;57.948;12.514;2023-10-19T00:43:45;1.10;;;0.80;;
31126;SDS011;17775;57.948;12.514;2023-10-19T00:46:13;1.10;;;0.70;;
31126;SDS011;17775;57.948;12.514;2023-10-19T00:51:18;1.58;;;0.90;;
31126;SDS011;17775;57.948;12.514;2023-10-19T00:53:58;1.10;;;0.60;;
31126;SDS011;17775;57.948;12.514;2023-10-19T00:56:25;1.10;;;0.68;;
31126;SDS011;17775;57.948;12.514;2023-10-19T00:58:55;1.55;;;0.90;;
31126;SDS011;17775;57.948;12.514;2023-10-19T01:01:28;1.67;;;1.00;;
31126;SDS011;17775;57.948;12.514;2023-10-19T01:03:55;1.67;;;0.90;;
31126;SDS011;17775;57.948;12.514;2023-10-19T01:06:25;1.05;;;0.80;;
31126;SDS011;17775;57.948;12.514;2023-10-19T01:08:52;1.42;;;0.90;;
31126;SDS011;17775;57.948;12.514;2023-10-19T01:11:18;1.25;;;0.80;;
31126;SDS011;17775;57.948;12.514;2023-10-19T01:13:50;1.30;;;0.90;;
31126;SDS011;17775;57.948;12.514;2023-10-19T01:18:50;1.38;;;0.65;;
31126;SDS011;17775;57.948;12.514;2023-10-19T01:21:23;0.88;;;0.60;;
31126;SDS011;17775;57.948;12.514;2023-10-19T01:23:53;1.90;;;1.10;;
31126;SDS011;17775;57.948;12.514;2023-10-19T01:26:20;1.17;;;0.75;;
31126;SDS011;17775;57.948;12.514;2023-10-19T01:28:52;1.95;;;0.90;;
31126;SDS011;17775;57.948;12.514;2023-10-19T01:31:27;1.10;;;0.82;;
31126;SDS011;17775;57.948;12.514;2023-10-19T01:33:55;1.50;;;0.80;;
31126;SDS011;17775;57.948;12.514;2023-10-19T01:36:23;1.48;;;0.80;;
31126;SDS011;17775;57.948;12.514;2023-10-19T01:38:50;1.50;;;1.08;;
31126;SDS011;17775;57.948;12.514;2023-10-19T01:41:23;1.55;;;1.02;;
31126;SDS011;17775;57.948;12.514;2023-10-19T01:43:51;1.17;;;0.82;;
31126;SDS011;17775;57.948;12.514;2023-10-19T01:46:23;1.90;;;0.90;;
31126;SDS011;17775;57.948;12.514;2023-10-19T01:48:57;1.35;;;0.80;;
31126;SDS011;17775;57.948;12.514;2023-10-19T01:51:24;1.10;;;0.80;;
31126;SDS011;17775;57.948;12.514;2023-10-19T01:53:53;0.98;;;0.70;;
31126;SDS011;17775;57.948;12.514;2023-10-19T01:56:22;1.23;;;0.73;;
31126;SDS011;17775;57.948;12.514;2023-10-19T01:58:48;0.90;;;0.60;;
31126;SDS011;17775;57.948;12.514;2023-10-19T02:01:18;1.15;;;0.90;;
31126;SDS011;17775;57.948;12.514;2023-10-19T02:03:54;1.50;;;0.90;;
31126;SDS011;17775;57.948;12.514;2023-10-19T02:06:24;1.33;;;0.93;;
31126;SDS011;17775;57.948;12.514;2023-10-19T02:11:45;1.23;;;0.82;;
31126;SDS011;17775;57.948;12.514;2023-10-19T02:14:15;2.17;;;1.33;;
31126;SDS011;17775;57.948;12.514;2023-10-19T02:16:42;2.92;;;1.30;;
31126;SDS011;17775;57.948;12.514;2023-10-19T02:19:10;2.08;;;1.20;;
31126;SDS011;17775;57.948;12.514;2023-10-19T02:21:36;2.63;;;1.58;;
31126;SDS011;17775;57.948;12.514;2023-10-19T02:24:07;2.30;;;1.23;;
31126;SDS011;17775;57.948;12.514;2023-10-19T02:26:33;1.73;;;1.08;;
31126;SDS011;17775;57.948;12.514;2023-10-19T02:29:00;2.92;;;1.27;;
31126;SDS011;17775;57.948;12.514;2023-10-19T02:31:26;1.25;;;1.00;;
31126;SDS011;17775;57.948;12.514;2023-10-19T02:33:53;1.42;;;1.00;;
31126;SDS011;17775;57.948;12.514;2023-10-19T02:36:29;1.63;;;1.00;;
31126;SDS011;17775;57.948;12.514;2023-10-19T02:38:57;2.75;;;1.00;;
31126;SDS011;17775;57.948;12.514;2023-10-19T02:41:27;1.85;;;1.08;;
31126;SDS011;17775;57.948;12.514;2023-10-19T02:43:54;1.70;;;0.90;;
31126;SDS011;17775;57.948;12.514;2023-10-19T02:46:31;1.05;;;0.73;;
31126;SDS011;17775;57.948;12.514;2023-10-19T02:49:02;1.98;;;0.90;;
31126;SDS011;17775;57.948;12.514;2023-10-19T02:51:32;1.88;;;1.05;;
31126;SDS011;17775;57.948;12.514;2023-10-19T02:53:58;1.17;;;0.80;;
31126;SDS011;17775;57.948;12.514;2023-10-19T02:56:28;1.30;;;0.90;;
31126;SDS011;17775;57.948;12.514;2023-10-19T02:58:58;1.48;;;0.88;;
31126;SDS011;17775;57.948;12.514;2023-10-19T03:01:30;1.88;;;0.93;;
31126;SDS011;17775;57.948;12.514;2023-10-19T03:04:02;1.23;;;0.75;;
31126;SDS011;17775;57.948;12.514;2023-10-19T03:06:31;1.20;;;0.77;;
31126;SDS011;17775;57.948;12.514;2023-10-19T03:09:03;1.92;;;1.10;;
31126;SDS011;17775;57.948;12.514;2023-10-19T03:11:48;1.67;;;0.80;;
31126;SDS011;17775;57.948;12.514;2023-10-19T03:14:19;4.15;;;0.98;;
31126;SDS011;17775;57.948;12.514;2023-10-19T03:16:46;2.92;;;1.40;;
31126;SDS011;17775;57.948;12.514;2023-10-19T03:19:12;2.05;;;1.27;;
31126;SDS011;17775;57.948;12.514;2023-10-19T03:21:41;1.77;;;0.95;;
31126;SDS011;17775;57.948;12.514;2023-10-19T03:24:15;2.67;;;1.27;;
31126;SDS011;17775;57.948;12.514;2023-10-19T03:27:07;2.40;;;1.35;;
31126;SDS011;17775;57.948;12.514;2023-10-19T03:29:57;1.10;;;0.90;;
31126;SDS011;17775;57.948;12.514;2023-10-19T03:32:26;2.35;;;1.33;;
31126;SDS011;17775;57.948;12.514;2023-10-19T03:34:53;1.60;;;1.10;;
31126;SDS011;17775;57.948;12.514;2023-10-19T03:37:23;1.83;;;1.33;;
31126;SDS011;17775;57.948;12.514;2023-10-19T03:39:51;3.22;;;1.50;;
31126;SDS011;17775;57.948;12.514;2023-10-19T03:42:18;2.60;;;1.52;;
31126;SDS011;17775;57.948;12.514;2023-10-19T03:44:47;2.25;;;1.30;;
31126;SDS011;17775;57.948;12.514;2023-10-19T03:47:13;1.83;;;1.17;;
31126;SDS011;17775;57.948;12.514;2023-10-19T03:49:47;2.10;;;1.35;;
31126;SDS011;17775;57.948;12.514;2023-10-19T03:52:13;1.63;;;1.00;;
31126;SDS011;17775;57.948;12.514;2023-10-19T03:54:40;2.38;;;1.08;;
31126;SDS011;17775;57.948;12.514;2023-10-19T03:57:11;3.25;;;1.88;;
31126;SDS011;17775;57.948;12.514;2023-10-19T03:59:41;1.90;;;1.23;;
31126;SDS011;17775;57.948;12.514;2023-10-19T04:02:08;3.05;;;1.50;;
31126;SDS011;17775;57.948;12.514;2023-10-19T04:04:42;2.28;;;1.05;;
31126;SDS011;17775;57.948;12.514;2023-10-19T04:07:15;2.13;;;1.30;;
31126;SDS011;17775;57.948;12.514;2023-10-19T04:09:49;1.60;;;0.90;;
31126;SDS011;17775;57.948;12.514;2023-10-19T04:12:24;1.73;;;0.93;;
31126;SDS011;17775;57.948;12.514;2023-10-19T04:14:50;1.80;;;0.95;;
31126;SDS011;17775;57.948;12.514;2023-10-19T04:17:17;1.52;;;0.80;;
31126;SDS011;17775;57.948;12.514;2023-10-19T04:19:47;1.35;;;0.80;;
31126;SDS011;17775;57.948;12.514;2023-10-19T04:22:21;2.00;;;0.95;;
31126;SDS011;17775;57.948;12.514;2023-10-19T04:24:51;2.83;;;1.42;;
31126;SDS011;17775;57.948;12.514;2023-10-19T04:27:17;1.45;;;0.80;;
31126;SDS011;17775;57.948;12.514;2023-10-19T04:29:47;2.27;;;1.13;;
31126;SDS011;17775;57.948;12.514;2023-10-19T04:32:16;1.95;;;1.10;;
31126;SDS011;17775;57.948;12.514;2023-10-19T04:34:52;1.67;;;1.00;;
31126;SDS011;17775;57.948;12.514;2023-10-19T04:37:19;1.38;;;0.90;;
31126;SDS011;17775;57.948;12.514;2023-10-19T04:39:45;3.10;;;1.30;;
31126;SDS011;17775;57.948;12.514;2023-10-19T04:42:12;1.70;;;0.98;;
31126;SDS011;17775;57.948;12.514;2023-10-19T04:44:38;2.03;;;1.27;;
31126;SDS011;17775;57.948;12.514;2023-10-19T04:47:05;1.85;;;1.02;;
31126;SDS011;17775;57.948;12.514;2023-10-19T04:49:31;1.83;;;1.40;;
31126;SDS011;17775;57.948;12.514;2023-10-19T04:51:58;2.58;;;1.45;;
31126;SDS011;17775;57.948;12.514;2023-10-19T04:54:24;2.45;;;1.25;;
31126;SDS011;17775;57.948;12.514;2023-10-19T04:56:51;1.65;;;1.08;;
31126;SDS011;17775;57.948;12.514;2023-10-19T04:59:19;2.17;;;1.25;;
31126;SDS011;17775;57.948;12.514;2023-10-19T05:01:45;1.83;;;1.15;;
31126;SDS011;17775;57.948;12.514;2023-10-19T05:04:12;2.28;;;1.40;;
31126;SDS011;17775;57.948;12.514;2023-10-19T05:06:39;3.45;;;1.25;;
31126;SDS011;17775;57.948;12.514;2023-10-19T05:09:05;2.78;;;1.75;;
31126;SDS011;17775;57.948;12.514;2023-10-19T05:11:32;2.00;;;1.00;;
31126;SDS011;17775;57.948;12.514;2023-10-19T05:13:58;2.22;;;1.20;;
31126;SDS011;17775;57.948;12.514;2023-10-19T05:16:25;3.15;;;1.90;;
31126;SDS011;17775;57.948;12.514;2023-10-19T05:18:52;3.42;;;1.90;;
31126;SDS011;17775;57.948;12.514;2023-10-19T05:21:19;3.05;;;1.70;;
31126;SDS011;17775;57.948;12.514;2023-10-19T05:23:45;3.05;;;1.63;;
31126;SDS011;17775;57.948;12.514;2023-10-19T05:26:12;2.35;;;1.58;;
31126;SDS011;17775;57.948;12.514;2023-10-19T05:28:40;2.53;;;1.50;;
31126;SDS011;17775;57.948;12.514;2023-10-19T05:31:09;2.88;;;1.25;;
31126;SDS011;17775;57.948;12.514;2023-10-19T05:33:38;5.43;;;1.98;;
31126;SDS011;17775;57.948;12.514;2023-10-19T05:36:04;3.28;;;1.60;;
31126;SDS011;17775;57.948;12.514;2023-10-19T05:38:31;4.47;;;1.80;;
31126;SDS011;17775;57.948;12.514;2023-10-19T05:40:58;2.90;;;1.67;;
31126;SDS011;17775;57.948;12.514;2023-10-19T05:43:28;2.78;;;1.55;;
31126;SDS011;17775;57.948;12.514;2023-10-19T05:45:54;3.15;;;1.63;;
31126;SDS011;17775;57.948;12.514;2023-10-19T05:48:21;4.72;;;2.08;;
31126;SDS011;17775;57.948;12.514;2023-10-19T05:50:49;3.30;;;1.90;;
31126;SDS011;17775;57.948;12.514;2023-10-19T05:53:16;3.25;;;1.58;;
31126;SDS011;17775;57.948;12.514;2023-10-19T05:55:44;2.65;;;1.30;;
31126;SDS011;17775;57.948;12.514;2023-10-19T05:58:12;2.75;;;1.42;;
31126;SDS011;17775;57.948;12.514;2023-10-19T06:00:39;2.53;;;1.40;;
31126;SDS011;17775;57.948;12.514;2023-10-19T06:03:05;2.63;;;1.30;;
31126;SDS011;17775;57.948;12.514;2023-10-19T06:05:32;1.83;;;1.13;;
31126;SDS011;17775;57.948;12.514;2023-10-19T06:07:58;2.83;;;1.60;;
31126;SDS011;17775;57.948;12.514;2023-10-19T06:10:27;3.65;;;1.92;;
31126;SDS011;17775;57.948;12.514;2023-10-19T06:12:54;2.70;;;1.45;;
31126;SDS011;17775;57.948;12.514;2023-10-19T06:15:22;3.15;;;1.70;;
31126;SDS011;17775;57.948;12.514;2023-10-19T06:17:51;2.80;;;1.65;;
31126;SDS011;17775;57.948;12.514;2023-10-19T06:20:19;2.47;;;1.30;;
31126;SDS011;17775;57.948;12.514;2023-10-19T06:22:57;2.30;;;1.50;;
31126;SDS011;17775;57.948;12.514;2023-10-19T06:25:31;2.58;;;1.50;;
31126;SDS011;17775;57.948;12.514;2023-10-19T06:27:58;2.22;;;1.10;;
31126;SDS011;17775;57.948;12.514;2023-10-19T06:30:25;1.75;;;1.00;;
31126;SDS011;17775;57.948;12.514;2023-10-19T06:32:55;1.15;;;0.93;;
31126;SDS011;17775;57.948;12.514;2023-10-19T06:35:23;2.30;;;0.93;;
31126;SDS011;17775;57.948;12.514;2023-10-19T06:37:50;1.27;;;0.80;;
31126;SDS011;17775;57.948;12.514;2023-10-19T06:40:16;1.77;;;0.98;;
31126;SDS011;17775;57.948;12.514;2023-10-19T06:42:43;1.42;;;0.75;;
31126;SDS011;17775;57.948;12.514;2023-10-19T06:45:12;1.13;;;0.70;;
31126;SDS011;17775;57.948;12.514;2023-10-19T06:47:45;2.20;;;1.15;;
31126;SDS011;17775;57.948;12.514;2023-10-19T06:50:12;1.58;;;1.00;;
31126;SDS011;17775;57.948;12.514;2023-10-19T06:52:39;2.97;;;1.10;;
31126;SDS011;17775;57.948;12.514;2023-10-19T06:55:07;2.03;;;1.10;;
31126;SDS011;17775;57.948;12.514;2023-10-19T06:57:49;1.73;;;1.02;;
31126;SDS011;17775;57.948;12.514;2023-10-19T07:00:16;1.40;;;0.90;;
31126;SDS011;17775;57.948;12.514;2023-10-19T07:02:46;3.20;;;1.42;;
31126;SDS011;17775;57.948;12.514;2023-10-19T07:05:13;2.25;;;1.27;;
31126;SDS011;17775;57.948;12.514;2023-10-19T07:07:47;2.67;;;1.55;;
31126;SDS011;17775;57.948;12.514;2023-10-19T07:10:17;3.08;;;1.60;;
31126;SDS011;17775;57.948;12.514;2023-10-19T07:12:45;2.70;;;1.40;;
31126;SDS011;17775;57.948;12.514;2023-10-19T07:15:12;3.97;;;1.63;;
31126;SDS011;17775;57.948;12.514;2023-10-19T07:17:49;2.90;;;1.70;;
31126;SDS011;17775;57.948;12.514;2023-10-19T07:20:16;2.78;;;1.63;;
31126;SDS011;17775;57.948;12.514;2023-10-19T07:22:53;2.25;;;1.50;;
31126;SDS011;17775;57.948;12.514;2023-10-19T07:25:20;3.33;;;1.73;;
31126;SDS011;17775;57.948;12.514;2023-10-19T07:27:50;2.78;;;1.33;;
31126;SDS011;17775;57.948;12.514;2023-10-19T07:30:17;2.70;;;1.43;;
31126;SDS011;17775;57.948;12.514;2023-10-19T07:32:49;2.70;;;1.27;;
31126;SDS011;17775;57.948;12.514;2023-10-19T07:35:22;2.42;;;1.55;;
31126;SDS011;17775;57.948;12.514;2023-10-19T07:37:52;2.92;;;1.75;;
31126;SDS011;17775;57.948;12.514;2023-10-19T07:40:19;2.50;;;1.45;;
31126;SDS011;17775;57.948;12.514;2023-10-19T07:42:45;3.00;;;1.58;;
31126;SDS011;17775;57.948;12.514;2023-10-19T07:45:12;2.58;;;1.40;;
31126;SDS011;17775;57.948;12.514;2023-10-19T07:47:39;4.05;;;1.85;;
31126;SDS011;17775;57.948;12.514;2023-10-19T07:50:08;4.25;;;2.13;;
31126;SDS011;17775;57.948;12.514;2023-10-19T07:52:42;3.63;;;2.00;;
31126;SDS011;17775;57.948;12.514;2023-10-19T07:55:10;2.83;;;1.60;;
31126;SDS011;17775;57.948;12.514;2023-10-19T07:57:36;3.33;;;1.70;;
31126;SDS011;17775;57.948;12.514;2023-10-19T08:00:03;2.13;;;1.30;;
31126;SDS011;17775;57.948;12.514;2023-10-19T08:02:31;3.30;;;1.73;;
31126;SDS011;17775;57.948;12.514;2023-10-19T08:05:00;3.60;;;1.90;;
31126;SDS011;17775;57.948;12.514;2023-10-19T08:07:30;3.10;;;1.80;;
31126;SDS011;17775;57.948;12.514;2023-10-19T08:09:56;3.00;;;1.45;;
31126;SDS011;17775;57.948;12.514;2023-10-19T08:12:25;3.22;;;1.83;;
31126;SDS011;17775;57.948;12.514;2023-10-19T08:14:53;3.38;;;1.95;;
31126;SDS011;17775;57.948;12.514;2023-10-19T08:17:19;3.80;;;2.33;;
31126;SDS011;17775;57.948;12.514;2023-10-19T08:19:46;3.95;;;2.03;;
31126;SDS011;17775;57.948;12.514;2023-10-19T08:22:13;4.78;;;2.25;;
31126;SDS011;17775;57.948;12.514;2023-10-19T08:24:42;3.42;;;1.88;;
31126;SDS011;17775;57.948;12.514;2023-10-19T08:27:12;2.85;;;1.85;;
31126;SDS011;17775;57.948;12.514;2023-10-19T08:29:39;3.00;;;1.50;;
31126;SDS011;17775;57.948;12.514;2023-10-19T08:32:06;3.45;;;1.83;;
31126;SDS011;17775;57.948;12.514;2023-10-19T08:34:35;3.92;;;2.10;;
31126;SDS011;17775;57.948;12.514;2023-10-19T08:37:02;2.78;;;1.90;;
31126;SDS011;17775;57.948;12.514;2023-10-19T08:39:31;2.50;;;1.52;;
31126;SDS011;17775;57.948;12.514;2023-10-19T08:42:04;2.67;;;1.77;;
31126;SDS011;17775;57.948;12.514;2023-10-19T08:44:31;3.10;;;1.80;;
31126;SDS011;17775;57.948;12.514;2023-10-19T08:46:58;2.67;;;1.65;;
31126;SDS011;17775;57.948;12.514;2023-10-19T08:49:25;2.60;;;1.55;;
31126;SDS011;17775;57.948;12.514;2023-10-19T08:51:55;2.78;;;1.95;;
31126;SDS011;17775;57.948;12.514;2023-10-19T08:54:24;2.35;;;1.55;;
31126;SDS011;17775;57.948;12.514;2023-10-19T08:56:52;3.63;;;1.58;;
31126;SDS011;17775;57.948;12.514;2023-10-19T08:59:18;2.75;;;1.70;;
31126;SDS011;17775;57.948;12.514;2023-10-19T09:01:44;3.60;;;1.77;;
31126;SDS011;17775;57.948;12.514;2023-10-19T09:04:12;2.22;;;1.60;;
31126;SDS011;17775;57.948;12.514;2023-10-19T09:06:43;3.03;;;1.30;;
31126;SDS011;17775;57.948;12.514;2023-10-19T09:09:13;2.55;;;1.50;;
31126;SDS011;17775;57.948;12.514;2023-10-19T09:11:45;2.45;;;1.50;;
31126;SDS011;17775;57.948;12.514;2023-10-19T09:14:12;3.05;;;1.60;;
31126;SDS011;17775;57.948;12.514;2023-10-19T09:16:54;3.03;;;1.60;;
31126;SDS011;17775;57.948;12.514;2023-10-19T09:19:37;2.13;;;1.40;;
31126;SDS011;17775;57.948;12.514;2023-10-19T09:22:04;3.50;;;1.20;;
31126;SDS011;17775;57.948;12.514;2023-10-19T09:24:34;2.27;;;1.37;;
31126;SDS011;17775;57.948;12.514;2023-10-19T09:27:02;1.92;;;1.10;;
31126;SDS011;17775;57.948;12.514;2023-10-19T09:29:29;2.65;;;1.20;;
31126;SDS011;17775;57.948;12.514;2023-10-19T09:32:00;2.28;;;1.42;;
31126;SDS011;17775;57.948;12.514;2023-10-19T09:34:31;1.73;;;1.20;;
31126;SDS011;17775;57.948;12.514;2023-10-19T09:37:01;1.60;;;1.15;;
31126;SDS011;17775;57.948;12.514;2023-10-19T09:39:28;1.35;;;0.98;;
31126;SDS011;17775;57.948;12.514;2023-10-19T09:42:10;1.30;;;0.80;;
31126;SDS011;17775;57.948;12.514;2023-10-19T09:44:47;2.17;;;1.20;;
31126;SDS011;17775;57.948;12.514;2023-10-19T09:47:19;1.65;;;1.10;;
31126;SDS011;17775;57.948;12.514;2023-10-19T09:49:47;1.83;;;1.13;;
31126;SDS011;17775;57.948;12.514;2023-10-19T09:52:16;1.83;;;1.30;;
31126;SDS011;17775;57.948;12.514;2023-10-19T09:54:52;2.45;;;0.90;;
31126;SDS011;17775;57.948;12.514;2023-10-19T09:57:21;1.70;;;1.20;;
31126;SDS011;17775;57.948;12.514;2023-10-19T10:02:17;1.60;;;1.10;;
31126;SDS011;17775;57.948;12.514;2023-10-19T10:04:45;1.25;;;0.88;;
31126;SDS011;17775;57.948;12.514;2023-10-19T10:07:12;1.80;;;1.08;;
31126;SDS011;17775;57.948;12.514;2023-10-19T10:09:43;1.65;;;1.10;;
31126;SDS011;17775;57.948;12.514;2023-10-19T10:12:20;1.20;;;0.90;;
31126;SDS011;17775;57.948;12.514;2023-10-19T10:15:07;1.70;;;1.02;;
31126;SDS011;17775;57.948;12.514;2023-10-19T10:17:36;2.00;;;1.08;;
31126;SDS011;17775;57.948;12.514;2023-10-19T10:22:39;1.67;;;1.05;;
31126;SDS011;17775;57.948;12.514;2023-10-19T10:25:08;1.25;;;0.90;;
31126;SDS011;17775;57.948;12.514;2023-10-19T10:27:48;1.00;;;0.80;;
31126;SDS011;17775;57.948;12.514;2023-10-19T10:30:14;1.77;;;0.90;;
31126;SDS011;17775;57.948;12.514;2023-10-19T10:35:09;1.02;;;0.80;;
31126;SDS011;17775;57.948;12.514;2023-10-19T10:37:36;1.58;;;0.80;;
31126;SDS011;17775;57.948;12.514;2023-10-19T10:40:03;1.33;;;0.90;;
31126;SDS011;17775;57.948;12.514;2023-10-19T10:42:32;1.55;;;1.02;;
31126;SDS011;17775;57.948;12.514;2023-10-19T10:45:00;1.00;;;0.90;;
31126;SDS011;17775;57.948;12.514;2023-10-19T10:47:29;1.90;;;1.00;;
31126;SDS011;17775;57.948;12.514;2023-10-19T10:50:00;1.58;;;0.82;;
31126;SDS011;17775;57.948;12.514;2023-10-19T10:52:31;1.50;;;0.80;;
31126;SDS011;17775;57.948;12.514;2023-10-19T10:55:05;1.23;;;0.80;;
31126;SDS011;17775;57.948;12.514;2023-10-19T10:57:33;2.17;;;1.10;;
31126;SDS011;17775;57.948;12.514;2023-10-19T11:00:06;1.30;;;0.88;;
31126;SDS011;17775;57.948;12.514;2023-10-19T11:02:36;1.60;;;1.13;;
31126;SDS011;17775;57.948;12.514;2023-10-19T11:05:03;1.48;;;0.93;;
31126;SDS011;17775;57.948;12.514;2023-10-19T11:07:30;1.58;;;0.80;;
31126;SDS011;17775;57.948;12.514;2023-10-19T11:09:56;1.65;;;0.82;;
31126;SDS011;17775;57.948;12.514;2023-10-19T11:12:23;1.40;;;0.90;;
31126;SDS011;17775;57.948;12.514;2023-10-19T11:14:54;1.05;;;0.70;;
31126;SDS011;17775;57.948;12.514;2023-10-19T11:17:21;0.90;;;0.80;;
31126;SDS011;17775;57.948;12.514;2023-10-19T11:19:57;1.50;;;0.70;;
31126;SDS011;17775;57.948;12.514;2023-10-19T11:22:25;1.35;;;0.90;;
31126;SDS011;17775;57.948;12.514;2023-10-19T11:24:52;1.70;;;0.80;;
31126;SDS011;17775;57.948;12.514;2023-10-19T11:27:26;1.17;;;0.80;;
31126;SDS011;17775;57.948;12.514;2023-10-19T11:29:55;1.42;;;0.80;;
31126;SDS011;17775;57.948;12.514;2023-10-19T11:32:25;0.98;;;0.80;;
31126;SDS011;17775;57.948;12.514;2023-10-19T11:34:52;0.80;;;0.70;;
31126;SDS011;17775;57.948;12.514;2023-10-19T11:37:19;1.23;;;0.88;;
31126;SDS011;17775;57.948;12.514;2023-10-19T11:39:45;1.33;;;0.68;;
31126;SDS011;17775;57.948;12.514;2023-10-19T11:42:12;1.40;;;0.88;;
31126;SDS011;17775;57.948;12.514;2023-10-19T11:44:38;2.10;;;1.25;;
31126;SDS011;17775;57.948;12.514;2023-10-19T11:47:05;1.25;;;0.95;;
31126;SDS011;17775;57.948;12.514;2023-10-19T11:49:32;1.70;;;0.88;;
31126;SDS011;17775;57.948;12.514;2023-10-19T11:51:59;1.23;;;1.00;;
31126;SDS011;17775;57.948;12.514;2023-10-19T11:54:25;0.88;;;0.57;;
31126;SDS011;17775;57.948;12.514;2023-10-19T11:56:52;1.50;;;0.90;;
31126;SDS011;17775;57.948;12.514;2023-10-19T11:59:20;1.10;;;0.70;;
31126;SDS011;17775;57.948;12.514;2023-10-19T12:01:46;1.48;;;0.65;;
31126;SDS011;17775;57.948;12.514;2023-10-19T12:04:13;1.25;;;0.82;;
31126;SDS011;17775;57.948;12.514;2023-10-19T12:06:40;1.52;;;0.82;;
31126;SDS011;17775;57.948;12.514;2023-10-19T12:09:06;1.45;;;0.85;;
31126;SDS011;17775;57.948;12.514;2023-10-19T12:11:41;1.63;;;0.85;;
31126;SDS011;17775;57.948;12.514;2023-10-19T12:14:07;1.70;;;1.10;;
31126;SDS011;17775;57.948;12.514;2023-10-19T12:16:41;1.73;;;0.80;;
31126;SDS011;17775;57.948;12.514;2023-10-19T12:19:07;1.17;;;0.88;;
31126;SDS011;17775;57.948;12.514;2023-10-19T12:21:34;1.00;;;0.90;;
31126;SDS011;17775;57.948;12.514;2023-10-19T12:24:03;1.35;;;1.00;;
31126;SDS011;17775;57.948;12.514;2023-10-19T12:26:31;2.25;;;1.27;;
31126;SDS011;17775;57.948;12.514;2023-10-19T12:28:57;1.33;;;0.60;;
31126;SDS011;17775;57.948;12.514;2023-10-19T12:31:24;0.90;;;0.80;;
31126;SDS011;17775;57.948;12.514;2023-10-19T12:33:51;1.25;;;0.65;;
31126;SDS011;17775;57.948;12.514;2023-10-19T12:36:19;1.58;;;0.90;;
31126;SDS011;17775;57.948;12.514;2023-10-19T12:38:55;1.25;;;0.82;;
31126;SDS011;17775;57.948;12.514;2023-10-19T12:41:21;0.82;;;0.73;;
31126;SDS011;17775;57.948;12.514;2023-10-19T12:43:48;0.85;;;0.63;;
31126;SDS011;17775;57.948;12.514;2023-10-19T12:46:18;1.23;;;0.97;;
31126;SDS011;17775;57.948;12.514;2023-10-19T12:48:48;1.13;;;0.70;;
31126;SDS011;17775;57.948;12.514;2023-10-19T12:51:15;1.17;;;0.80;;
31126;SDS011;17775;57.948;12.514;2023-10-19T12:53:44;1.35;;;0.80;;
31126;SDS011;17775;57.948;12.514;2023-10-19T12:56:12;1.20;;;0.60;;
31126;SDS011;17775;57.948;12.514;2023-10-19T12:58:38;0.88;;;0.68;;
31126;SDS011;17775;57.948;12.514;2023-10-19T13:01:05;0.82;;;0.60;;
31126;SDS011;17775;57.948;12.514;2023-10-19T13:03:32;1.13;;;0.63;;
31126;SDS011;17775;57.948;12.514;2023-10-19T13:05:59;0.60;;;0.50;;
31126;SDS011;17775;57.948;12.514;2023-10-19T13:08:30;1.23;;;0.60;;
31126;SDS011;17775;57.948;12.514;2023-10-19T13:10:56;0.60;;;0.60;;
31126;SDS011;17775;57.948;12.514;2023-10-19T13:13:33;0.95;;;0.60;;
31126;SDS011;17775;57.948;12.514;2023-10-19T13:16:02;1.88;;;0.63;;
31126;SDS011;17775;57.948;12.514;2023-10-19T13:18:32;1.45;;;0.60;;
31126;SDS011;17775;57.948;12.514;2023-10-19T13:21:00;0.95;;;0.60;;
31126;SDS011;17775;57.948;12.514;2023-10-19T13:23:31;1.33;;;0.85;;
31126;SDS011;17775;57.948;12.514;2023-10-19T13:25:59;0.60;;;0.60;;
31126;SDS011;17775;57.948;12.514;2023-10-19T13:28:41;0.70;;;0.60;;
31126;SDS011;17775;57.948;12.514;2023-10-19T13:31:08;0.57;;;0.52;;
31126;SDS011;17775;57.948;12.514;2023-10-19T13:33:40;1.88;;;0.80;;
31126;SDS011;17775;57.948;12.514;2023-10-19T13:36:10;1.35;;;0.70;;
31126;SDS011;17775;57.948;12.514;2023-10-19T13:38:37;0.55;;;0.50;;
31126;SDS011;17775;57.948;12.514;2023-10-19T13:41:04;1.33;;;0.70;;
31126;SDS011;17775;57.948;12.514;2023-10-19T13:43:38;1.52;;;0.70;;
31126;SDS011;17775;57.948;12.514;2023-10-19T13:46:06;1.95;;;0.98;;
31126;SDS011;17775;57.948;12.514;2023-10-19T13:48:32;1.38;;;0.70;;
31126;SDS011;17775;57.948;12.514;2023-10-19T13:50:59;0.93;;;0.55;;
31126;SDS011;17775;57.948;12.514;2023-10-19T13:53:39;0.85;;;0.65;;
31126;SDS011;17775;57.948;12.514;2023-10-19T13:56:09;0.68;;;0.57;;
31126;SDS011;17775;57.948;12.514;2023-10-19T13:58:36;2.13;;;1.00;;
31126;SDS011;17775;57.948;12.514;2023-10-19T14:01:05;0.70;;;0.52;;
31126;SDS011;17775;57.948;12.514;2023-10-19T14:03:32;0.82;;;0.60;;
31126;SDS011;17775;57.948;12.514;2023-10-19T14:05:58;1.15;;;0.73;;
31126;SDS011;17775;57.948;12.514;2023-10-19T14:08:25;0.88;;;0.68;;
31126;SDS011;17775;57.948;12.514;2023-10-19T14:10:51;0.90;;;0.60;;
31126;SDS011;17775;57.948;12.514;2023-10-19T14:13:18;0.60;;;0.50;;
31126;SDS011;17775;57.948;12.514;2023-10-19T14:15:45;0.85;;;0.63;;
31126;SDS011;17775;57.948;12.514;2023-10-19T14:18:12;1.08;;;0.70;;
31126;SDS011;17775;57.948;12.514;2023-10-19T14:20:38;1.15;;;0.70;;
31126;SDS011;17775;57.948;12.514;2023-10-19T14:23:07;0.93;;;0.60;;
31126;SDS011;17775;57.948;12.514;2023-10-19T14:25:37;0.80;;;0.50;;
31126;SDS011;17775;57.948;12.514;2023-10-19T14:28:09;0.70;;;0.50;;
31126;SDS011;17775;57.948;12.514;2023-10-19T14:30:36;0.90;;;0.60;;
31126;SDS011;17775;57.948;12.514;2023-10-19T14:33:02;1.98;;;0.65;;
31126;SDS011;17775;57.948;12.514;2023-10-19T14:35:30;1.10;;;0.55;;
31126;SDS011;17775;57.948;12.514;2023-10-19T14:37:57;0.50;;;0.50;;
31126;SDS011;17775;57.948;12.514;2023-10-19T14:40:26;0.82;;;0.50;;
31126;SDS011;17775;57.948;12.514;2023-10-19T14:42:52;0.55;;;0.40;;
31126;SDS011;17775;57.948;12.514;2023-10-19T14:50:21;0.73;;;0.50;;
31126;SDS011;17775;57.948;12.514;2023-10-19T14:52:49;0.80;;;0.50;;
31126;SDS011;17775;57.948;12.514;2023-10-19T14:55:16;1.25;;;0.60;;
31126;SDS011;17775;57.948;12.514;2023-10-19T14:57:43;1.40;;;0.63;;
31126;SDS011;17775;57.948;12.514;2023-10-19T15:00:12;1.08;;;0.70;;
31126;SDS011;17775;57.948;12.514;2023-10-19T15:05:09;2.50;;;0.80;;
31126;SDS011;17775;57.948;12.514;2023-10-19T15:07:40;1.30;;;0.82;;